Share

Blagovescensk, Russia

10:01 PM YAKT on April 24, 2014 (GMT +1000)
Ignatyevo (UHBB) Elev 636 ft | 50.43 °N, 127.41 °E | Change Station

Current weather conditions updated 1 hour ago

Mostly Cloudy
Mostly Cloudy
68 °F
Feels Like 68 °F
N
9
Wind Variable Wind from South
Sunrise 6:19 AM
Sunset 8:38 PM
Moon Waning Crescent

Tomorrow is forecast to be nearly the same temperature as today.

Pressure 29.74 in
Visibility 6.2 miles
Clouds Few 3300 ft
Mostly Cloudy 20000 ft
Dew Point 37 °F
Humidity 33%
Rainfall 0.00 in
Snow Depth Not available.
UV 0 out of 16
Pollen Not available.
Air Quality Not available.
Flu Activity Not available.
METAR UHBB 241100Z 19004MPS 140V230 9999 FEW033CB BKN200 20/03 Q1007 NOSIG RMK QFE738/0984 36090060

More Conditions Fewer Conditions

Pressure 29.74 in
Visibility 6.2 miles
Clouds Few 3300 ft
Mostly Cloudy 20000 ft
Dew Point 37 °F
Humidity 33%
Rainfall 0.00 in
Snow Depth Not available.
UV 0 out of 16
Pollen Not available.
Air Quality Not available.
Flu Activity Not available.
METAR UHBB 241100Z 19004MPS 140V230 9999 FEW033CB BKN200 20/03 Q1007 NOSIG RMK QFE738/0984 36090060

More Conditions Fewer Conditions

10-Day Weather Forecast

Almanac

Astronomy

Apr. 24, 2014 Rise Set
Actual Time 6:19 AM YAKT 8:38 PM YAKT
Civil Twilight 5:43 AM YAKT 9:14 PM YAKT
Nautical Twilight 4:59 AM YAKT 9:59 PM YAKT
Astronomical Twilight 4:07 AM YAKT 10:52 PM YAKT
Moon 3:43 AM YAKT 2:40 PM YAKT
Length of Visible Light 15h 30m
Length of Day
14h 18m
Tomorrow will be 3m 32s longer.
Waning Crescent, 26% of the Moon is Illuminated
Today
Waning Crescent
Apr 29
New
May 6
First Quarter
May 14
Full
May 21
Last Quarter

Yesterday's Extremes

Country Highs Country Lows

Community

  • Stacked
    Stacked
  • clouds approaching Red Sox Nation
    clouds approaching Red Sox Nation
  • Balance
    Balance
  • Nestled In
    Nestled In
  • Stunning Sunrise
    Stunning Sunrise

WunderPhotos

Upload Photos

1,704,591 photos uploaded!

WunderBlogs® & News

Nearby

Snow Depth

Not available.

Coastal Water Temperatures

Place Temperature
No Stations Reporting

Earthquake Activity

City Distance Mag. Time & Date
No recent earthquake activity has been reported nearby.
Minimum magnitude displayed is 2.5.

Nearby Weather Stations

There are no personal weather stations in this area.

What do you think?

We're not finished. Please let us know what you like, what you don't like, and what you are still missing.